Terminal Aerodrome Forecast
Issued by NWS Charleston, SC

Home | Current Version | Previous Version | Text Only | Print | Product List | Glossary On
Versions: 1 2 3 4 5 6 7 8 9 10 11 12 13 14 15
000
FTUS42 KCHS 200500
TAFSAV
TAF
KSAV 200528Z 2006/2106 00000KT P6SM FEW020
     FM200900 VRB03KT P6SM SCT030
     FM201700 14007KT P6SM BKN045
     FM202300 VRB03KT P6SM SCT050=

USA.gov is the U.S. government's official web portal to all federal, state and local government web resources and services.